createdAt,value
2022-10-19T00:00:01.205Z,99747.00
2022-10-19T00:02:34.872Z,99742.00
2022-10-19T00:05:01.828Z,99736.00
2022-10-19T00:07:35.034Z,99746.00
2022-10-19T00:10:02.398Z,99750.00
2022-10-19T00:12:35.864Z,99744.00
2022-10-19T00:15:03.297Z,99741.00
2022-10-19T00:17:30.372Z,99736.00
2022-10-19T00:20:03.865Z,99738.00
2022-10-19T00:22:36.863Z,99739.00
2022-10-19T00:25:04.952Z,99737.00
2022-10-19T00:27:32.063Z,99731.00
2022-10-19T00:30:05.840Z,99739.00
2022-10-19T00:32:39.539Z,99734.00
2022-10-19T00:35:13.883Z,99735.00
2022-10-19T00:37:40.797Z,99722.00
2022-10-19T00:40:14.906Z,99719.00
2022-10-19T00:42:41.809Z,99718.00
2022-10-19T00:45:24.885Z,99718.00
2022-10-19T00:47:57.863Z,99725.00
2022-10-19T00:50:24.772Z,99713.00
2022-10-19T00:52:57.943Z,99725.00
2022-10-19T00:55:25.176Z,99724.00
2022-10-19T00:57:58.922Z,99725.00
2022-10-19T01:00:25.901Z,99727.00
2022-10-19T01:02:52.772Z,99729.00
2022-10-19T01:05:25.927Z,99725.00
2022-10-19T01:07:52.980Z,99724.00
2022-10-19T01:10:26.913Z,99732.00
2022-10-19T01:13:10.917Z,99719.00
2022-10-19T01:16:03.893Z,99728.00
2022-10-19T01:18:44.670Z,99714.00
2022-10-19T01:21:32.007Z,99723.00
2022-10-19T01:24:38.451Z,99723.00
2022-10-19T01:27:27.893Z,99713.00
2022-10-19T01:30:16.671Z,99720.00
2022-10-19T01:33:07.897Z,99722.00
2022-10-19T01:35:56.740Z,99729.00
2022-10-19T01:38:34.944Z,99729.00
2022-10-19T01:41:16.135Z,99725.00
2022-10-19T01:44:13.905Z,99723.00
2022-10-19T01:46:45.043Z,99713.00
2022-10-19T01:49:25.946Z,99716.00
2022-10-19T01:54:31.933Z,99704.00
2022-10-19T01:56:59.235Z,99695.00
2022-10-19T01:59:32.950Z,99701.00
2022-10-19T02:01:59.877Z,99693.00
2022-10-19T02:04:26.776Z,99688.00
2022-10-19T02:07:00.934Z,99695.00
2022-10-19T02:09:28.040Z,99692.00
2022-10-19T02:12:02.913Z,99694.00
2022-10-19T02:14:33.091Z,99679.00
2022-10-19T02:17:18.926Z,99678.00
2022-10-19T02:19:45.877Z,99686.00
2022-10-19T02:22:19.925Z,99681.00
2022-10-19T02:24:46.878Z,99674.00
2022-10-19T02:27:19.955Z,99672.00
2022-10-19T02:29:46.855Z,99673.00
2022-10-19T02:32:19.945Z,99667.00
2022-10-19T02:34:46.846Z,99670.00
2022-10-19T02:37:13.785Z,99669.00
2022-10-19T02:39:46.933Z,99671.00
2022-10-19T02:42:20.146Z,99669.00
2022-10-19T02:45:02.972Z,99671.00
2022-10-19T02:47:37.160Z,99652.00
2022-10-19T02:50:14.947Z,99665.00
2022-10-19T02:52:41.892Z,99663.00
2022-10-19T02:55:15.977Z,99672.00
2022-10-19T02:57:43.025Z,99665.00
2022-10-19T03:00:16.932Z,99661.00
2022-10-19T03:02:44.053Z,99653.00
2022-10-19T03:05:17.948Z,99652.00
2022-10-19T03:07:44.927Z,99654.00
2022-10-19T03:10:17.966Z,99657.00
2022-10-19T03:12:44.885Z,99650.00
2022-10-19T03:15:24.970Z,99651.00
2022-10-19T03:17:59.992Z,99655.00
2022-10-19T03:20:26.972Z,99653.00
2022-10-19T03:23:00.995Z,99648.00
2022-10-19T03:25:28.000Z,99638.00
2022-10-19T03:28:02.054Z,99635.00
2022-10-19T03:30:29.010Z,99635.00
2022-10-19T03:33:03.031Z,99633.00
2022-10-19T03:35:29.942Z,99629.00
2022-10-19T03:38:02.990Z,99621.00
2022-10-19T03:40:35.948Z,99637.00
2022-10-19T03:43:02.965Z,99637.00
2022-10-19T03:45:37.051Z,99634.00
2022-10-19T03:48:04.338Z,99647.00
2022-10-19T03:50:38.002Z,99639.00
2022-10-19T03:53:04.955Z,99639.00
2022-10-19T03:55:38.008Z,99647.00
2022-10-19T03:58:04.909Z,99643.00
2022-10-19T04:00:38.009Z,99645.00
2022-10-19T04:03:04.908Z,99646.00
2022-10-19T04:05:38.003Z,99656.00
2022-10-19T04:08:05.318Z,99644.00
2022-10-19T04:10:39.096Z,99655.00
2022-10-19T04:13:11.987Z,99653.00
2022-10-19T04:15:38.895Z,99638.00
2022-10-19T04:18:11.973Z,99639.00
2022-10-19T04:20:38.890Z,99640.00
2022-10-19T04:23:12.114Z,99643.00
2022-10-19T04:25:39.092Z,99638.00
2022-10-19T04:28:13.053Z,99644.00
2022-10-19T04:30:47.005Z,99644.00
2022-10-19T04:33:13.878Z,99642.00
2022-10-19T04:35:47.025Z,99633.00
2022-10-19T04:38:13.900Z,99647.00
2022-10-19T04:40:47.093Z,99639.00
2022-10-19T04:43:14.093Z,99636.00
2022-10-19T04:45:48.034Z,99642.00
2022-10-19T04:48:15.342Z,99640.00
2022-10-19T04:50:49.035Z,99639.00
2022-10-19T04:53:15.998Z,99636.00
2022-10-19T04:55:50.026Z,99637.00
2022-10-19T04:58:16.961Z,99631.00
2022-10-19T05:00:50.143Z,99635.00
2022-10-19T05:03:17.256Z,99635.00
2022-10-19T05:05:50.983Z,99635.00
2022-10-19T05:08:24.021Z,99646.00
2022-10-19T05:10:50.885Z,99624.00
2022-10-19T05:13:24.065Z,99641.00
2022-10-19T05:16:01.468Z,99628.00
2022-10-19T05:18:34.987Z,99634.00
2022-10-19T05:21:05.697Z,99623.00
2022-10-19T05:26:22.021Z,99640.00
2022-10-19T05:28:50.387Z,99620.00
2022-10-19T05:31:27.023Z,99616.00
2022-10-19T05:33:54.246Z,99615.00
2022-10-19T05:36:32.066Z,99620.00
2022-10-19T05:39:05.023Z,99612.00
2022-10-19T05:41:38.082Z,99626.00
2022-10-19T05:44:05.494Z,99630.00
2022-10-19T05:46:40.071Z,99625.00
2022-10-19T05:49:06.956Z,99616.00
2022-10-19T05:51:40.092Z,99610.00
2022-10-19T05:54:07.137Z,99620.00
2022-10-19T05:56:34.086Z,99615.00
2022-10-19T05:59:10.055Z,99615.00
2022-10-19T06:01:37.004Z,99626.00
2022-10-19T06:04:04.175Z,99625.00
2022-10-19T06:06:38.066Z,99622.00
2022-10-19T06:09:13.962Z,99607.00
2022-10-19T06:11:41.837Z,99595.00
2022-10-19T06:14:19.038Z,99620.00
2022-10-19T06:16:52.057Z,99621.00
2022-10-19T06:19:18.950Z,99614.00
2022-10-19T06:21:52.072Z,99627.00
2022-10-19T06:24:19.001Z,99628.00
2022-10-19T06:26:52.084Z,99631.00
2022-10-19T06:29:19.048Z,99626.00
2022-10-19T06:31:59.111Z,99637.00
2022-10-19T06:34:26.087Z,99644.00
2022-10-19T06:36:59.079Z,99647.00
2022-10-19T06:39:26.131Z,99642.00
2022-10-19T06:41:59.092Z,99629.00
2022-10-19T06:44:26.086Z,99647.00
2022-10-19T06:46:53.050Z,99633.00
2022-10-19T06:49:26.082Z,99632.00
2022-10-19T06:51:53.007Z,99647.00
2022-10-19T06:54:26.054Z,99650.00
2022-10-19T06:56:52.958Z,99646.00
2022-10-19T06:59:26.080Z,99655.00
2022-10-19T07:01:52.985Z,99637.00
2022-10-19T07:04:26.144Z,99647.00
2022-10-19T07:06:59.109Z,99643.00
2022-10-19T07:09:32.132Z,99625.00
2022-10-19T07:11:59.098Z,99628.00
2022-10-19T07:14:33.309Z,99635.00
2022-10-19T07:17:00.216Z,99634.00
2022-10-19T07:19:34.120Z,99639.00
2022-10-19T07:22:01.080Z,99620.00
2022-10-19T07:24:28.059Z,99624.00
2022-10-19T07:27:02.126Z,99624.00
2022-10-19T07:29:29.018Z,99635.00
2022-10-19T07:32:02.185Z,99613.00
2022-10-19T07:34:29.275Z,99622.00
2022-10-19T07:37:03.146Z,99635.00
2022-10-19T07:39:30.104Z,99621.00
2022-10-19T07:42:03.106Z,99624.00
2022-10-19T07:44:30.047Z,99629.00
2022-10-19T07:47:03.124Z,99633.00
2022-10-19T07:49:29.988Z,99635.00
2022-10-19T07:52:03.123Z,99637.00
2022-10-19T07:54:30.068Z,99637.00
2022-10-19T07:56:56.930Z,99636.00
2022-10-19T07:59:30.123Z,99641.00
2022-10-19T08:01:57.130Z,99639.00
2022-10-19T08:07:16.971Z,99632.00
2022-10-19T08:09:54.141Z,99640.00
2022-10-19T08:12:21.389Z,99645.00
2022-10-19T08:14:55.145Z,99638.00
2022-10-19T08:17:22.558Z,99644.00
2022-10-19T08:19:56.133Z,99636.00
2022-10-19T08:22:23.078Z,99636.00
2022-10-19T08:24:56.123Z,99646.00
2022-10-19T08:27:29.163Z,99645.00
2022-10-19T08:30:02.167Z,99629.00
2022-10-19T08:32:35.485Z,99646.00
2022-10-19T08:35:10.876Z,99647.00
2022-10-19T08:37:45.352Z,99651.00
2022-10-19T08:40:31.147Z,99649.00
2022-10-19T08:43:20.190Z,99659.00
2022-10-19T08:46:30.615Z,99675.00
2022-10-19T08:49:04.154Z,99677.00
2022-10-19T08:51:37.832Z,99675.00
2022-10-19T08:54:13.197Z,99666.00
2022-10-19T08:57:11.358Z,99676.00
2022-10-19T08:59:55.185Z,99671.00
2022-10-19T09:03:22.975Z,99673.00
2022-10-19T09:06:29.401Z,99680.00
2022-10-19T09:09:03.272Z,99666.00
2022-10-19T09:11:41.165Z,99679.00
2022-10-19T09:14:13.317Z,99683.00
2022-10-19T09:16:47.208Z,99685.00
2022-10-19T09:19:24.405Z,99676.00
2022-10-19T09:22:04.252Z,99671.00
2022-10-19T09:24:52.037Z,99671.00
2022-10-19T09:27:34.198Z,99667.00
2022-10-19T09:30:10.251Z,99665.00
2022-10-19T09:32:38.341Z,99671.00
2022-10-19T09:35:25.202Z,99661.00
2022-10-19T09:37:52.085Z,99667.00
2022-10-19T09:40:33.218Z,99661.00
2022-10-19T09:43:00.129Z,99663.00
2022-10-19T09:46:13.901Z,99655.00
2022-10-19T09:48:57.183Z,99663.00
2022-10-19T09:51:24.077Z,99650.00
2022-10-19T09:53:54.911Z,99648.00
2022-10-19T09:56:33.275Z,99657.00
2022-10-19T09:59:00.205Z,99659.00
2022-10-19T10:01:43.059Z,99660.00
2022-10-19T10:04:17.837Z,99662.00
2022-10-19T10:06:54.213Z,99661.00
2022-10-19T10:09:26.823Z,99650.00
2022-10-19T10:12:01.220Z,99661.00
2022-10-19T10:14:30.789Z,99648.00
2022-10-19T10:17:30.216Z,99661.00
2022-10-19T10:20:06.242Z,99660.00
2022-10-19T10:22:35.715Z,99658.00
2022-10-19T10:25:19.274Z,99658.00
2022-10-19T10:27:59.475Z,99653.00
2022-10-19T10:30:33.225Z,99661.00
2022-10-19T10:33:08.160Z,99657.00
2022-10-19T10:35:56.282Z,99654.00
2022-10-19T10:38:28.557Z,99647.00
2022-10-19T10:41:07.268Z,99656.00
2022-10-19T10:43:35.983Z,99650.00
2022-10-19T10:46:15.253Z,99650.00
2022-10-19T10:48:58.228Z,99643.00
2022-10-19T10:51:43.267Z,99641.00
2022-10-19T10:54:27.292Z,99642.00
2022-10-19T10:57:06.289Z,99624.00
2022-10-19T10:59:46.247Z,99627.00
2022-10-19T11:02:28.291Z,99621.00
2022-10-19T11:05:22.304Z,99604.00
2022-10-19T11:08:14.313Z,99601.00
2022-10-19T11:10:58.272Z,99606.00
2022-10-19T11:14:00.080Z,99599.00
2022-10-19T11:16:47.292Z,99606.00
2022-10-19T11:19:27.105Z,99601.00
2022-10-19T11:22:47.279Z,99599.00
2022-10-19T11:25:33.120Z,99586.00
2022-10-19T11:28:37.291Z,99587.00
2022-10-19T11:31:40.565Z,99581.00
2022-10-19T11:34:53.296Z,99574.00
2022-10-19T11:38:19.683Z,99570.00
2022-10-19T11:41:18.838Z,99561.00
2022-10-19T11:44:36.314Z,99561.00
2022-10-19T11:47:39.286Z,99537.00
2022-10-19T11:50:53.754Z,99545.00
2022-10-19T11:53:48.470Z,99534.00
2022-10-19T11:56:58.118Z,99536.00
2022-10-19T11:59:34.778Z,99531.00
2022-10-19T12:02:37.626Z,99524.00
2022-10-19T12:05:29.679Z,99521.00
2022-10-19T12:08:32.405Z,99525.00
2022-10-19T12:11:40.963Z,99530.00
2022-10-19T12:14:20.286Z,99520.00
2022-10-19T12:16:53.643Z,99510.00
2022-10-19T12:19:36.314Z,99513.00
2022-10-19T12:22:04.922Z,99506.00
2022-10-19T12:24:39.309Z,99496.00
2022-10-19T12:27:14.816Z,99496.00
2022-10-19T12:29:51.331Z,99492.00
2022-10-19T12:32:25.010Z,99492.00
2022-10-19T12:35:24.443Z,99495.00
2022-10-19T12:38:06.929Z,99477.00
2022-10-19T12:41:10.320Z,99483.00
2022-10-19T12:44:02.458Z,99486.00
2022-10-19T12:46:40.308Z,99480.00
2022-10-19T12:49:35.397Z,99479.00
2022-10-19T12:52:02.473Z,99473.00
2022-10-19T12:54:32.259Z,99471.00
2022-10-19T12:57:08.371Z,99475.00
2022-10-19T12:59:36.357Z,99461.00
2022-10-19T13:02:13.355Z,99468.00
2022-10-19T13:04:40.241Z,99452.00
2022-10-19T13:07:07.714Z,99455.00
2022-10-19T13:09:45.341Z,99452.00
2022-10-19T13:12:19.306Z,99453.00
2022-10-19T13:15:20.361Z,99447.00
2022-10-19T13:17:47.208Z,99449.00
2022-10-19T13:20:20.387Z,99438.00
2022-10-19T13:22:49.086Z,99438.00
2022-10-19T13:25:44.404Z,99443.00
2022-10-19T13:28:11.290Z,99440.00
2022-10-19T13:30:44.375Z,99434.00
2022-10-19T13:33:23.468Z,99434.00
2022-10-19T13:36:11.241Z,99425.00
2022-10-19T13:38:48.302Z,99431.00
2022-10-19T13:41:24.365Z,99435.00
2022-10-19T13:44:13.924Z,99418.00
2022-10-19T13:47:25.435Z,99425.00
2022-10-19T13:50:27.016Z,99415.00
2022-10-19T13:53:35.355Z,99418.00
2022-10-19T13:56:34.392Z,99417.00
2022-10-19T14:02:32.636Z,99422.00
2022-10-19T14:08:39.385Z,99412.00
2022-10-19T14:11:21.355Z,99413.00
2022-10-19T14:14:14.869Z,99415.00
2022-10-19T14:17:08.466Z,99407.00
2022-10-19T14:19:54.387Z,99411.00
2022-10-19T14:22:31.568Z,99414.00
2022-10-19T14:25:20.430Z,99410.00
2022-10-19T14:27:48.375Z,99413.00
2022-10-19T14:30:36.362Z,99411.00
2022-10-19T14:33:09.162Z,99418.00
2022-10-19T14:35:44.397Z,99413.00
2022-10-19T14:38:33.269Z,99425.00
2022-10-19T14:41:06.383Z,99425.00
2022-10-19T14:43:40.477Z,99431.00
2022-10-19T14:46:07.277Z,99425.00
2022-10-19T14:48:53.449Z,99428.00
2022-10-19T14:51:49.497Z,99421.00
2022-10-19T14:54:36.528Z,99425.00
2022-10-19T14:57:15.405Z,99425.00
2022-10-19T15:00:08.339Z,99417.00
2022-10-19T15:03:05.388Z,99417.00
2022-10-19T15:05:35.212Z,99414.00
2022-10-19T15:08:41.479Z,99402.00
2022-10-19T15:11:09.429Z,99401.00
2022-10-19T15:13:48.422Z,99409.00
2022-10-19T15:16:39.364Z,99405.00
2022-10-19T15:19:21.436Z,99406.00
2022-10-19T15:21:48.351Z,99405.00
2022-10-19T15:24:34.420Z,99401.00
2022-10-19T15:27:21.799Z,99395.00
2022-10-19T15:30:28.407Z,99399.00
2022-10-19T15:33:03.092Z,99397.00
2022-10-19T15:35:41.445Z,99400.00
2022-10-19T15:38:14.437Z,99398.00
2022-10-19T15:40:49.444Z,99403.00
2022-10-19T15:43:31.665Z,99401.00
2022-10-19T15:46:26.537Z,99396.00
2022-10-19T15:48:55.688Z,99396.00
2022-10-19T15:51:25.676Z,99394.00
2022-10-19T15:54:06.459Z,99398.00
2022-10-19T15:56:36.837Z,99393.00
2022-10-19T15:59:19.465Z,99394.00
2022-10-19T16:01:46.567Z,99388.00
2022-10-19T16:04:20.440Z,99393.00
2022-10-19T16:06:47.459Z,99386.00
2022-10-19T16:09:27.429Z,99390.00
2022-10-19T16:11:54.295Z,99392.00
2022-10-19T16:14:21.133Z,99383.00
2022-10-19T16:16:55.503Z,99378.00
2022-10-19T16:19:22.406Z,99384.00
2022-10-19T16:21:55.445Z,99390.00
2022-10-19T16:24:28.492Z,99389.00
2022-10-19T16:26:55.355Z,99395.00
2022-10-19T16:29:29.048Z,99393.00
2022-10-19T16:31:56.169Z,99396.00
2022-10-19T16:34:29.473Z,99406.00
2022-10-19T16:36:56.394Z,99409.00
2022-10-19T16:39:23.333Z,99399.00
2022-10-19T16:41:56.517Z,99413.00
2022-10-19T16:44:23.482Z,99420.00
2022-10-19T16:46:57.610Z,99422.00
2022-10-19T16:49:28.396Z,99414.00
2022-10-19T16:52:11.717Z,99423.00
2022-10-19T16:54:39.024Z,99417.00
2022-10-19T16:57:10.065Z,99419.00
2022-10-19T16:59:43.882Z,99428.00
2022-10-19T17:02:11.323Z,99431.00
2022-10-19T17:04:44.531Z,99425.00
2022-10-19T17:07:18.539Z,99434.00
2022-10-19T17:09:54.683Z,99420.00
2022-10-19T17:12:22.007Z,99427.00
2022-10-19T17:14:48.970Z,99444.00
2022-10-19T17:17:22.545Z,99448.00
2022-10-19T17:19:55.616Z,99452.00
2022-10-19T17:22:22.594Z,99446.00
2022-10-19T17:24:49.534Z,99444.00
2022-10-19T17:27:22.564Z,99450.00
2022-10-19T17:29:49.633Z,99458.00
2022-10-19T17:32:22.535Z,99451.00
2022-10-19T17:34:49.577Z,99461.00
2022-10-19T17:37:22.568Z,99451.00
2022-10-19T17:39:51.348Z,99456.00
2022-10-19T17:42:24.570Z,99450.00
2022-10-19T17:44:53.742Z,99471.00
2022-10-19T17:47:27.576Z,99466.00
2022-10-19T17:50:01.612Z,99469.00
2022-10-19T17:52:28.880Z,99470.00
2022-10-19T17:55:17.987Z,99477.00
2022-10-19T17:57:51.555Z,99458.00
2022-10-19T18:00:18.538Z,99467.00
2022-10-19T18:02:45.702Z,99469.00
2022-10-19T18:05:19.580Z,99472.00
2022-10-19T18:07:46.518Z,99478.00
2022-10-19T18:10:13.526Z,99477.00
2022-10-19T18:12:46.622Z,99468.00
2022-10-19T18:15:13.657Z,99484.00
2022-10-19T18:17:47.934Z,99472.00
2022-10-19T18:20:17.629Z,99477.00
2022-10-19T18:22:51.943Z,99480.00
2022-10-19T18:25:25.959Z,99485.00
2022-10-19T18:28:09.607Z,99484.00
2022-10-19T18:30:37.464Z,99490.00
2022-10-19T18:33:05.464Z,99492.00
2022-10-19T18:35:43.657Z,99492.00
2022-10-19T18:38:10.715Z,99486.00
2022-10-19T18:40:44.593Z,99483.00
2022-10-19T18:43:11.615Z,99496.00
2022-10-19T18:45:45.612Z,99493.00
2022-10-19T18:48:12.628Z,99500.00
2022-10-19T18:50:39.717Z,99492.00
2022-10-19T18:53:13.615Z,99487.00
2022-10-19T18:55:48.625Z,99474.00
2022-10-19T18:58:15.564Z,99466.00
2022-10-19T19:00:45.548Z,99475.00
2022-10-19T19:03:19.653Z,99480.00
2022-10-19T19:05:46.686Z,99469.00
2022-10-19T19:08:19.735Z,99476.00
2022-10-19T19:10:46.742Z,99482.00
2022-10-19T19:13:13.897Z,99471.00
2022-10-19T19:15:47.712Z,99464.00
2022-10-19T19:18:21.707Z,99478.00
2022-10-19T19:20:48.668Z,99466.00
2022-10-19T19:23:22.642Z,99475.00
2022-10-19T19:25:49.647Z,99477.00
2022-10-19T19:28:16.699Z,99471.00
2022-10-19T19:30:51.733Z,99473.00
2022-10-19T19:33:18.769Z,99488.00
2022-10-19T19:35:52.624Z,99469.00
2022-10-19T19:38:19.612Z,99468.00
2022-10-19T19:40:53.627Z,99473.00
2022-10-19T19:43:20.576Z,99472.00
2022-10-19T19:46:06.372Z,99474.00
2022-10-19T19:48:37.102Z,99466.00
2022-10-19T19:51:10.647Z,99459.00
2022-10-19T19:53:37.859Z,99462.00
2022-10-19T19:56:07.255Z,99479.00
2022-10-19T19:58:40.639Z,99480.00
2022-10-19T20:01:21.749Z,99481.00
2022-10-19T20:03:55.738Z,99482.00
2022-10-19T20:06:25.775Z,99475.00
2022-10-19T20:09:00.835Z,99478.00
2022-10-19T20:11:28.872Z,99471.00
2022-10-19T20:14:02.768Z,99492.00
2022-10-19T20:16:30.300Z,99478.00
2022-10-19T20:19:17.777Z,99482.00
2022-10-19T20:21:51.721Z,99485.00
2022-10-19T20:24:18.933Z,99493.00
2022-10-19T20:26:52.697Z,99499.00
2022-10-19T20:29:19.852Z,99486.00
2022-10-19T20:31:53.667Z,99491.00
2022-10-19T20:34:27.899Z,99482.00
2022-10-19T20:36:55.038Z,99484.00
2022-10-19T20:39:34.752Z,99494.00
2022-10-19T20:42:01.947Z,99494.00
2022-10-19T20:44:35.688Z,99494.00
2022-10-19T20:47:09.815Z,99494.00
2022-10-19T20:49:36.790Z,99485.00
2022-10-19T20:52:10.693Z,99476.00
2022-10-19T20:54:37.731Z,99500.00
2022-10-19T20:57:11.774Z,99503.00
2022-10-19T20:59:38.895Z,99503.00
2022-10-19T21:02:12.682Z,99501.00
2022-10-19T21:04:39.665Z,99493.00
2022-10-19T21:07:06.722Z,99516.00
2022-10-19T21:09:40.764Z,99511.00
2022-10-19T21:12:07.810Z,99494.00
2022-10-19T21:14:41.689Z,99517.00
2022-10-19T21:17:08.812Z,99501.00
2022-10-19T21:19:42.717Z,99508.00
2022-10-19T21:22:09.814Z,99514.00
2022-10-19T21:24:46.712Z,99496.00
2022-10-19T21:27:13.654Z,99516.00
2022-10-19T21:29:51.200Z,99510.00
2022-10-19T21:32:18.232Z,99516.00
2022-10-19T21:34:45.258Z,99505.00
2022-10-19T21:37:18.767Z,99519.00
2022-10-19T21:39:45.712Z,99497.00
2022-10-19T21:42:19.852Z,99516.00
2022-10-19T21:44:46.795Z,99523.00
2022-10-19T21:47:20.728Z,99526.00
2022-10-19T21:49:47.776Z,99515.00
2022-10-19T21:52:21.744Z,99510.00
2022-10-19T21:54:48.807Z,99522.00
2022-10-19T21:57:15.864Z,99528.00
2022-10-19T21:59:49.766Z,99527.00
2022-10-19T22:02:16.971Z,99528.00
2022-10-19T22:04:50.765Z,99529.00
2022-10-19T22:07:17.760Z,99535.00
2022-10-19T22:09:51.765Z,99526.00
2022-10-19T22:12:18.832Z,99541.00
2022-10-19T22:14:52.712Z,99536.00
2022-10-19T22:17:19.746Z,99538.00
2022-10-19T22:19:53.777Z,99536.00
2022-10-19T22:22:27.798Z,99539.00
2022-10-19T22:24:54.743Z,99511.00
2022-10-19T22:27:28.724Z,99522.00
2022-10-19T22:29:55.816Z,99528.00
2022-10-19T22:32:29.757Z,99509.00
2022-10-19T22:34:56.798Z,99520.00
2022-10-19T22:37:30.716Z,99531.00
2022-10-19T22:39:57.644Z,99535.00
2022-10-19T22:42:30.807Z,99527.00
2022-10-19T22:44:57.950Z,99529.00
2022-10-19T22:47:25.474Z,99507.00
2022-10-19T22:49:58.832Z,99517.00
2022-10-19T22:52:32.910Z,99526.00
2022-10-19T22:55:00.104Z,99526.00
2022-10-19T22:57:27.291Z,99536.00
2022-10-19T23:00:00.806Z,99514.00
2022-10-19T23:02:36.087Z,99520.00
2022-10-19T23:05:10.031Z,99520.00
2022-10-19T23:07:37.538Z,99526.00
2022-10-19T23:10:12.847Z,99509.00
2022-10-19T23:12:40.034Z,99513.00
2022-10-19T23:15:07.990Z,99522.00
2022-10-19T23:17:41.829Z,99514.00
2022-10-19T23:20:09.841Z,99528.00
2022-10-19T23:22:43.739Z,99529.00
2022-10-19T23:25:10.700Z,99530.00
2022-10-19T23:27:43.757Z,99518.00
2022-10-19T23:30:11.371Z,99533.00
2022-10-19T23:32:38.342Z,99541.00
2022-10-19T23:35:13.871Z,99519.00
2022-10-19T23:37:40.862Z,99534.00
2022-10-19T23:40:14.792Z,99530.00
2022-10-19T23:42:41.972Z,99538.00
2022-10-19T23:45:15.802Z,99539.00
2022-10-19T23:47:42.757Z,99547.00
2022-10-19T23:50:16.841Z,99541.00
2022-10-19T23:52:43.930Z,99544.00
2022-10-19T23:55:17.841Z,99549.00
2022-10-19T23:57:51.806Z,99545.00
